createdAt,value
2022-11-05T00:01:05.558Z,4.10
2022-11-05T00:04:01.021Z,3.65
2022-11-05T00:09:31.073Z,2.92
2022-11-05T00:12:19.606Z,3.72
2022-11-05T00:15:06.183Z,3.65
2022-11-05T00:17:34.934Z,4.20
2022-11-05T00:20:06.194Z,4.97
2022-11-05T00:22:52.500Z,4.63
2022-11-05T00:25:22.031Z,4.63
2022-11-05T00:27:52.597Z,4.28
2022-11-05T00:30:23.311Z,4.10
2022-11-05T00:32:53.380Z,4.50
2022-11-05T00:35:23.808Z,3.90
2022-11-05T00:37:54.802Z,5.03
2022-11-05T00:40:23.476Z,5.45
2022-11-05T00:43:09.727Z,4.07
2022-11-05T00:45:38.681Z,4.55
2022-11-05T00:48:25.167Z,4.75
2022-11-05T00:50:54.949Z,4.90
2022-11-05T00:53:23.555Z,5.32
2022-11-05T00:55:52.293Z,4.80
2022-11-05T00:58:22.599Z,6.05
2022-11-05T01:00:53.224Z,5.65
2022-11-05T01:03:25.278Z,5.70
2022-11-05T01:05:58.116Z,4.63
2022-11-05T01:08:28.589Z,5.07
2022-11-05T01:10:59.076Z,4.63
2022-11-05T01:13:30.610Z,4.15
2022-11-05T01:15:59.231Z,4.65
2022-11-05T01:18:27.790Z,4.90
2022-11-05T01:20:57.731Z,5.20
2022-11-05T01:23:26.346Z,4.78
2022-11-05T01:25:55.130Z,5.18
2022-11-05T01:28:24.044Z,4.90
2022-11-05T01:30:57.441Z,4.47
2022-11-05T01:33:26.300Z,4.75
2022-11-05T01:35:55.175Z,5.35
2022-11-05T01:38:25.497Z,6.18
2022-11-05T01:40:54.213Z,4.70
2022-11-05T01:43:25.045Z,5.72
2022-11-05T01:45:58.463Z,4.97
2022-11-05T01:48:33.454Z,5.32
2022-11-05T01:51:06.158Z,5.43
2022-11-05T01:53:41.372Z,5.22
2022-11-05T01:56:15.356Z,5.38
2022-11-05T01:58:49.464Z,5.40
2022-11-05T02:01:18.890Z,5.55
2022-11-05T02:03:49.903Z,5.85
2022-11-05T02:06:19.892Z,6.28
2022-11-05T02:08:58.295Z,6.60
2022-11-05T02:11:27.060Z,5.95
2022-11-05T02:13:55.639Z,6.88
2022-11-05T02:16:38.832Z,6.70
2022-11-05T02:19:35.138Z,6.75
2022-11-05T02:22:36.420Z,6.35
2022-11-05T02:25:51.509Z,6.80
2022-11-05T02:28:48.669Z,6.72
2022-11-05T02:31:28.879Z,6.93
2022-11-05T02:34:07.820Z,6.95
2022-11-05T02:36:45.740Z,7.68
2022-11-05T02:39:36.643Z,7.15
2022-11-05T02:42:18.881Z,6.50
2022-11-05T02:44:57.962Z,8.32
2022-11-05T02:47:37.768Z,6.72
2022-11-05T02:50:20.094Z,8.07
2022-11-05T02:53:00.292Z,8.50
2022-11-05T02:55:34.491Z,7.63
2022-11-05T02:58:04.698Z,8.40
2022-11-05T03:00:49.255Z,8.90
2022-11-05T03:03:36.540Z,8.70
2022-11-05T03:06:36.559Z,8.43
2022-11-05T03:09:31.667Z,8.70
2022-11-05T03:12:13.051Z,7.95
2022-11-05T03:14:51.695Z,9.30
2022-11-05T03:17:34.871Z,9.05
2022-11-05T03:20:16.197Z,9.75
2022-11-05T03:22:52.793Z,9.75
2022-11-05T03:25:25.439Z,10.05
2022-11-05T03:28:00.971Z,9.35
2022-11-05T03:30:30.951Z,9.32
2022-11-05T03:33:04.460Z,9.95
2022-11-05T03:35:40.886Z,9.57
2022-11-05T03:38:15.675Z,9.02
2022-11-05T03:43:15.210Z,6.28
2022-11-05T03:45:48.542Z,7.05
2022-11-05T03:48:19.720Z,7.20
2022-11-05T03:51:01.575Z,6.53
2022-11-05T03:53:33.433Z,5.45
2022-11-05T03:56:07.477Z,3.95
2022-11-05T03:58:37.057Z,4.82
2022-11-05T04:01:05.826Z,3.65
2022-11-05T04:03:36.534Z,4.70
2022-11-05T04:06:22.534Z,3.53
2022-11-05T04:09:09.093Z,3.63
2022-11-05T04:11:54.912Z,3.58
2022-11-05T04:14:23.288Z,3.17
2022-11-05T04:17:09.718Z,2.92
2022-11-05T04:19:57.373Z,2.92
2022-11-05T04:22:47.065Z,2.50
2022-11-05T04:25:17.326Z,2.67
2022-11-05T04:27:46.673Z,2.40
2022-11-05T04:30:19.172Z,2.13
2022-11-05T04:33:06.224Z,2.40
2022-11-05T04:35:37.200Z,2.15
2022-11-05T04:38:08.980Z,2.13
2022-11-05T04:40:37.879Z,2.10
2022-11-05T04:43:13.629Z,2.63
2022-11-05T04:45:44.091Z,2.47
2022-11-05T04:48:13.170Z,3.15
2022-11-05T04:50:41.473Z,2.50
2022-11-05T04:53:11.338Z,3.25
2022-11-05T04:55:40.103Z,2.97
2022-11-05T04:58:09.590Z,2.95
2022-11-05T05:00:38.178Z,3.17
2022-11-05T05:03:06.567Z,2.67
2022-11-05T05:05:34.923Z,3.13
2022-11-05T05:08:03.924Z,3.65
2022-11-05T05:10:35.255Z,2.92
2022-11-05T05:13:03.481Z,3.38
2022-11-05T05:15:32.586Z,2.25
2022-11-05T05:18:00.852Z,3.13
2022-11-05T05:20:46.903Z,2.97
2022-11-05T05:23:15.514Z,2.55
2022-11-05T05:25:45.065Z,2.17
2022-11-05T05:28:13.636Z,2.13
2022-11-05T05:30:42.116Z,2.13
2022-11-05T05:33:10.970Z,2.40
2022-11-05T05:35:39.721Z,2.53
2022-11-05T05:38:07.954Z,2.50
2022-11-05T05:40:36.163Z,2.28
2022-11-05T05:43:05.950Z,2.15
2022-11-05T05:45:35.942Z,2.17
2022-11-05T05:48:04.681Z,2.65
2022-11-05T05:50:32.925Z,2.50
2022-11-05T05:53:09.185Z,2.50
2022-11-05T05:55:38.305Z,2.63
2022-11-05T05:58:07.872Z,1.88
2022-11-05T06:00:36.512Z,2.50
2022-11-05T06:03:06.306Z,2.40
2022-11-05T06:05:35.106Z,2.13
2022-11-05T06:08:03.646Z,2.50
2022-11-05T06:10:32.088Z,2.45
2022-11-05T06:13:01.338Z,2.53
2022-11-05T06:15:35.631Z,2.50
2022-11-05T06:18:04.865Z,3.20
2022-11-05T06:20:33.141Z,3.05
2022-11-05T06:23:01.412Z,3.08
2022-11-05T06:25:29.927Z,2.38
2022-11-05T06:27:58.247Z,3.25
2022-11-05T06:30:26.503Z,3.53
2022-11-05T06:32:56.226Z,3.20
2022-11-05T06:35:24.819Z,3.67
2022-11-05T06:37:53.076Z,3.33
2022-11-05T06:40:21.323Z,3.58
2022-11-05T06:42:53.473Z,3.88
2022-11-05T06:45:24.496Z,3.78
2022-11-05T06:48:00.920Z,3.95
2022-11-05T06:50:30.054Z,3.95
2022-11-05T06:52:59.560Z,3.85
2022-11-05T06:55:29.811Z,3.88
2022-11-05T06:57:58.923Z,3.95
2022-11-05T07:00:27.646Z,3.22
2022-11-05T07:02:56.968Z,3.47
2022-11-05T07:05:27.339Z,3.67
2022-11-05T07:07:55.894Z,3.67
2022-11-05T07:10:24.525Z,4.80
2022-11-05T07:12:53.070Z,4.35
2022-11-05T07:15:21.610Z,5.15
2022-11-05T07:17:49.911Z,4.78
2022-11-05T07:20:18.491Z,5.47
2022-11-05T07:22:48.843Z,5.80
2022-11-05T07:25:17.465Z,5.78
2022-11-05T07:27:46.166Z,5.25
2022-11-05T07:30:14.695Z,5.25
2022-11-05T07:32:43.573Z,5.28
2022-11-05T07:35:12.303Z,5.72
2022-11-05T07:37:45.002Z,5.40
2022-11-05T07:40:22.437Z,4.75
2022-11-05T07:42:53.053Z,5.13
2022-11-05T07:45:22.759Z,4.90
2022-11-05T07:47:53.629Z,5.28
2022-11-05T07:50:27.908Z,5.30
2022-11-05T07:53:05.091Z,5.53
2022-11-05T07:55:36.148Z,5.30
2022-11-05T07:58:05.415Z,6.22
2022-11-05T08:00:34.831Z,6.45
2022-11-05T08:03:08.195Z,6.63
2022-11-05T08:05:40.278Z,6.30
2022-11-05T08:08:10.185Z,6.88
2022-11-05T08:10:40.577Z,6.22
2022-11-05T08:13:10.491Z,5.80
2022-11-05T08:15:38.979Z,5.53
2022-11-05T08:18:09.714Z,5.30
2022-11-05T08:20:38.531Z,5.53
2022-11-05T08:23:07.399Z,5.32
2022-11-05T08:25:36.203Z,6.07
2022-11-05T08:28:08.912Z,5.57
2022-11-05T08:30:37.830Z,5.38
2022-11-05T08:33:08.757Z,5.43
2022-11-05T08:35:39.610Z,5.25
2022-11-05T08:38:11.092Z,6.22
2022-11-05T08:40:39.572Z,6.28
2022-11-05T08:43:11.429Z,5.25
2022-11-05T08:45:41.978Z,5.90
2022-11-05T08:48:12.854Z,5.82
2022-11-05T08:50:41.119Z,5.95
2022-11-05T08:53:11.181Z,7.03
2022-11-05T08:55:40.055Z,6.20
2022-11-05T08:58:14.977Z,5.90
2022-11-05T09:00:45.577Z,5.07
2022-11-05T09:03:14.598Z,7.03
2022-11-05T09:05:44.114Z,7.10
2022-11-05T09:08:15.547Z,4.88
2022-11-05T09:10:44.923Z,4.50
2022-11-05T09:13:18.739Z,4.30
2022-11-05T09:15:47.934Z,3.90
2022-11-05T09:18:17.371Z,4.13
2022-11-05T09:20:46.230Z,3.45
2022-11-05T09:23:16.178Z,4.18
2022-11-05T09:25:45.627Z,3.50
2022-11-05T09:28:17.992Z,3.40
2022-11-05T09:30:48.443Z,3.58
2022-11-05T09:33:18.858Z,3.80
2022-11-05T09:35:47.631Z,3.95
2022-11-05T09:38:15.916Z,3.30
2022-11-05T09:40:55.404Z,3.63
2022-11-05T09:43:32.202Z,3.72
2022-11-05T09:46:09.062Z,3.75
2022-11-05T09:48:39.252Z,3.50
2022-11-05T09:51:11.989Z,3.17
2022-11-05T09:53:42.225Z,3.13
2022-11-05T09:56:22.331Z,2.75
2022-11-05T09:58:57.477Z,3.00
2022-11-05T10:01:30.390Z,3.00
2022-11-05T10:04:03.679Z,3.25
2022-11-05T10:06:32.563Z,3.22
2022-11-05T10:09:07.939Z,2.83
2022-11-05T10:11:41.862Z,5.50
2022-11-05T10:14:17.966Z,3.08
2022-11-05T10:16:53.597Z,2.60
2022-11-05T10:19:26.526Z,2.95
2022-11-05T10:22:06.898Z,2.63
2022-11-05T10:24:35.883Z,2.67
2022-11-05T10:27:06.335Z,3.28
2022-11-05T10:29:36.755Z,2.55
2022-11-05T10:32:07.244Z,2.25
2022-11-05T10:34:39.170Z,2.50
2022-11-05T10:37:07.507Z,2.20
2022-11-05T10:39:36.368Z,2.35
2022-11-05T10:42:27.877Z,2.17
2022-11-05T10:45:09.149Z,2.42
2022-11-05T10:47:52.748Z,2.70
2022-11-05T10:50:26.092Z,2.30
2022-11-05T10:53:01.429Z,2.95
2022-11-05T10:55:32.967Z,2.65
2022-11-05T10:58:25.514Z,2.58
2022-11-05T11:01:11.700Z,1.90
2022-11-05T11:03:45.208Z,1.75
2022-11-05T11:06:24.173Z,2.60
2022-11-05T11:08:54.668Z,2.38
2022-11-05T11:11:33.412Z,1.80
2022-11-05T11:14:06.686Z,2.10
2022-11-05T11:16:42.228Z,2.60
2022-11-05T11:19:28.493Z,1.85
2022-11-05T11:22:22.068Z,2.55
2022-11-05T11:24:53.940Z,2.88
2022-11-05T11:27:30.094Z,2.42
2022-11-05T11:30:01.450Z,2.30
2022-11-05T11:32:40.790Z,2.78
2022-11-05T11:35:26.048Z,1.88
2022-11-05T11:40:31.283Z,2.17
2022-11-05T11:43:04.079Z,1.33
2022-11-05T11:45:38.604Z,2.10
2022-11-05T11:48:17.798Z,1.77
2022-11-05T11:50:47.977Z,1.65
2022-11-05T11:53:35.403Z,1.63
2022-11-05T11:56:15.057Z,2.17
2022-11-05T11:58:48.386Z,1.77
2022-11-05T12:02:07.919Z,1.80
2022-11-05T12:04:57.828Z,1.85
2022-11-05T12:07:42.665Z,1.60
2022-11-05T12:10:41.015Z,1.75
2022-11-05T12:13:52.646Z,2.15
2022-11-05T12:16:59.498Z,1.67
2022-11-05T12:19:45.703Z,1.63
2022-11-05T12:22:28.395Z,2.30
2022-11-05T12:25:13.864Z,1.77
2022-11-05T12:28:16.312Z,1.25
2022-11-05T12:30:58.373Z,1.70
2022-11-05T12:33:38.442Z,2.08
2022-11-05T12:36:33.782Z,1.38
2022-11-05T12:39:32.230Z,1.05
2022-11-05T12:42:08.416Z,1.65
2022-11-05T12:45:03.013Z,1.35
2022-11-05T12:47:51.768Z,1.58
2022-11-05T12:50:29.527Z,1.63
2022-11-05T12:53:34.811Z,1.20
2022-11-05T12:56:16.535Z,1.60
2022-11-05T12:58:49.770Z,1.08
2022-11-05T13:01:25.175Z,1.10
2022-11-05T13:04:00.153Z,1.75
2022-11-05T13:06:34.990Z,1.63
2022-11-05T13:11:45.261Z,1.48
2022-11-05T13:14:17.387Z,0.90
2022-11-05T13:16:51.327Z,1.95
2022-11-05T13:19:24.815Z,0.77
2022-11-05T13:21:58.890Z,0.73
2022-11-05T13:24:35.553Z,1.02
2022-11-05T13:27:31.907Z,1.27
2022-11-05T13:30:05.365Z,0.88
2022-11-05T13:32:37.233Z,0.95
2022-11-05T13:35:15.122Z,0.80
2022-11-05T13:38:05.810Z,1.42
2022-11-05T13:40:45.740Z,0.90
2022-11-05T13:43:36.343Z,0.85
2022-11-05T13:46:46.507Z,1.20
2022-11-05T13:49:51.525Z,1.35
2022-11-05T13:52:43.598Z,1.38
2022-11-05T13:56:07.173Z,1.50
2022-11-05T13:59:36.574Z,1.50
2022-11-05T14:02:14.097Z,1.33
2022-11-05T14:04:50.229Z,2.00
2022-11-05T14:07:24.543Z,2.13
2022-11-05T14:10:00.793Z,1.58
2022-11-05T14:12:32.773Z,2.08
2022-11-05T14:15:08.540Z,2.03
2022-11-05T14:17:58.682Z,1.65
2022-11-05T14:20:44.980Z,1.75
2022-11-05T14:23:50.678Z,2.35
2022-11-05T14:26:25.956Z,2.78
2022-11-05T14:29:23.840Z,2.80
2022-11-05T14:32:09.363Z,2.42
2022-11-05T14:34:48.665Z,2.83
2022-11-05T14:37:39.385Z,2.38
2022-11-05T14:40:32.550Z,3.05
2022-11-05T14:43:05.899Z,3.05
2022-11-05T14:45:37.725Z,3.42
2022-11-05T14:48:27.164Z,3.00
2022-11-05T14:50:55.932Z,3.88
2022-11-05T14:53:38.367Z,4.32
2022-11-05T14:56:13.564Z,4.82
2022-11-05T14:58:43.218Z,5.65
2022-11-05T15:01:54.816Z,6.07
2022-11-05T15:04:30.351Z,5.30
2022-11-05T15:07:34.680Z,3.78
2022-11-05T15:10:12.091Z,3.50
2022-11-05T15:12:47.394Z,3.50
2022-11-05T15:15:23.709Z,5.00
2022-11-05T15:18:02.629Z,5.07
2022-11-05T15:20:40.329Z,5.00
2022-11-05T15:23:14.420Z,5.75
2022-11-05T15:25:53.374Z,4.65
2022-11-05T15:28:30.197Z,4.28
2022-11-05T15:31:02.150Z,4.18
2022-11-05T15:33:30.852Z,4.65
2022-11-05T15:36:12.860Z,4.80
2022-11-05T15:38:56.624Z,5.60
2022-11-05T15:41:34.514Z,6.20
2022-11-05T15:44:03.222Z,4.72
2022-11-05T15:46:31.588Z,5.72
2022-11-05T15:49:04.101Z,5.80
2022-11-05T15:51:35.523Z,5.22
2022-11-05T15:54:29.018Z,4.50
2022-11-05T15:56:58.062Z,5.25
2022-11-05T15:59:30.222Z,5.55
2022-11-05T16:02:06.796Z,6.18
2022-11-05T16:04:36.110Z,6.20
2022-11-05T16:07:12.106Z,5.93
2022-11-05T16:09:43.632Z,5.85
2022-11-05T16:12:28.074Z,6.75
2022-11-05T16:15:19.718Z,5.88
2022-11-05T16:17:53.287Z,6.10
2022-11-05T16:20:29.268Z,5.60
2022-11-05T16:23:01.561Z,7.13
2022-11-05T16:25:38.078Z,5.80
2022-11-05T16:28:19.387Z,6.35
2022-11-05T16:30:56.313Z,7.47
2022-11-05T16:33:26.047Z,6.93
2022-11-05T16:35:54.474Z,6.22
2022-11-05T16:38:25.000Z,5.38
2022-11-05T16:40:53.263Z,5.53
2022-11-05T16:43:24.569Z,5.88
2022-11-05T16:45:56.539Z,5.95
2022-11-05T16:48:25.761Z,5.20
2022-11-05T16:50:54.493Z,3.53
2022-11-05T16:53:24.266Z,4.10
2022-11-05T16:55:52.774Z,4.20
2022-11-05T16:58:23.872Z,4.63
2022-11-05T17:00:55.744Z,4.07
2022-11-05T17:03:24.247Z,3.78
2022-11-05T17:05:52.474Z,3.53
2022-11-05T17:08:20.744Z,3.63
2022-11-05T17:10:50.643Z,4.03
2022-11-05T17:13:20.308Z,4.22
2022-11-05T17:15:51.150Z,4.70
2022-11-05T17:18:20.510Z,4.90
2022-11-05T17:20:51.605Z,4.43
2022-11-05T17:23:22.648Z,4.57
2022-11-05T17:25:55.317Z,5.07
2022-11-05T17:28:24.477Z,5.40
2022-11-05T17:30:53.399Z,5.20
2022-11-05T17:33:23.551Z,4.97
2022-11-05T17:35:52.540Z,4.35
2022-11-05T17:38:22.023Z,4.35
2022-11-05T17:40:52.451Z,5.05
2022-11-05T17:43:21.397Z,5.15
2022-11-05T17:45:52.783Z,4.70
2022-11-05T17:48:22.358Z,4.47
2022-11-05T17:50:51.850Z,4.40
2022-11-05T17:53:21.022Z,3.83
2022-11-05T17:55:51.087Z,4.47
2022-11-05T17:58:19.436Z,5.35
2022-11-05T18:00:48.858Z,5.07
2022-11-05T18:03:17.493Z,6.05
2022-11-05T18:05:46.298Z,12.13
2022-11-05T18:08:14.865Z,17.67
2022-11-05T18:10:43.528Z,7.90
2022-11-05T18:13:13.466Z,5.55
2022-11-05T18:15:42.000Z,4.20
2022-11-05T18:18:10.641Z,6.68
2022-11-05T18:20:39.589Z,5.30
2022-11-05T18:23:08.006Z,5.10
2022-11-05T18:25:36.895Z,5.57
2022-11-05T18:28:05.323Z,5.32
2022-11-05T18:30:35.315Z,6.18
2022-11-05T18:33:03.571Z,5.65
2022-11-05T18:35:32.091Z,5.47
2022-11-05T18:38:00.572Z,5.65
2022-11-05T18:40:29.048Z,5.60
2022-11-05T18:42:57.551Z,5.78
2022-11-05T18:45:29.668Z,6.13
2022-11-05T18:48:01.274Z,8.70
2022-11-05T18:50:30.690Z,7.90
2022-11-05T18:52:59.404Z,8.52
2022-11-05T18:55:27.656Z,7.18
2022-11-05T18:57:56.155Z,7.07
2022-11-05T19:00:24.387Z,6.80
2022-11-05T19:02:52.701Z,7.30
2022-11-05T19:05:29.126Z,8.63
2022-11-05T19:07:58.991Z,6.95
2022-11-05T19:10:28.363Z,7.22
2022-11-05T19:12:56.866Z,6.78
2022-11-05T19:15:25.051Z,8.18
2022-11-05T19:17:53.549Z,6.28
2022-11-05T19:20:23.100Z,6.72
2022-11-05T19:22:51.688Z,5.85
2022-11-05T19:25:20.300Z,6.38
2022-11-05T19:27:49.076Z,7.03
2022-11-05T19:30:17.484Z,8.70
2022-11-05T19:32:46.009Z,9.40
2022-11-05T19:35:14.518Z,8.68
2022-11-05T19:37:44.388Z,8.60
2022-11-05T19:40:13.632Z,8.68
2022-11-05T19:42:41.829Z,7.68
2022-11-05T19:45:38.477Z,8.77
2022-11-05T19:48:00.049Z,8.80
2022-11-05T19:50:28.667Z,10.20
2022-11-05T19:52:58.298Z,8.40
2022-11-05T19:55:26.993Z,9.65
2022-11-05T19:57:55.551Z,9.52
2022-11-05T20:00:24.197Z,9.55
2022-11-05T20:02:52.960Z,10.13
2022-11-05T20:05:21.926Z,8.82
2022-11-05T20:07:52.987Z,7.93
2022-11-05T20:10:23.466Z,6.88
2022-11-05T20:12:51.898Z,7.38
2022-11-05T20:15:20.532Z,6.68
2022-11-05T20:17:52.614Z,6.85
2022-11-05T20:20:21.561Z,6.93
2022-11-05T20:22:51.930Z,7.75
2022-11-05T20:25:20.248Z,6.10
2022-11-05T20:27:50.092Z,8.25
2022-11-05T20:30:18.902Z,7.50
2022-11-05T20:32:47.583Z,7.82
2022-11-05T20:35:16.262Z,7.68
2022-11-05T20:37:48.422Z,8.43
2022-11-05T20:40:19.572Z,7.75
2022-11-05T20:42:49.490Z,7.97
2022-11-05T20:45:18.020Z,8.02
2022-11-05T20:47:46.557Z,7.53
2022-11-05T20:50:15.147Z,8.10
2022-11-05T20:52:43.663Z,8.30
2022-11-05T20:55:12.223Z,8.75
2022-11-05T20:57:40.721Z,8.10
2022-11-05T21:00:12.819Z,7.97
2022-11-05T21:02:41.851Z,8.60
2022-11-05T21:05:10.607Z,8.88
2022-11-05T21:07:39.122Z,8.00
2022-11-05T21:10:08.222Z,9.82
2022-11-05T21:12:36.741Z,7.78
2022-11-05T21:15:05.947Z,8.90
2022-11-05T21:17:36.425Z,8.80
2022-11-05T21:20:06.883Z,8.55
2022-11-05T21:22:35.370Z,8.68
2022-11-05T21:25:03.835Z,8.75
2022-11-05T21:27:32.356Z,10.05
2022-11-05T21:30:00.817Z,8.60
2022-11-05T21:32:29.293Z,10.13
2022-11-05T21:34:59.327Z,10.68
2022-11-05T21:37:27.837Z,8.93
2022-11-05T21:39:56.393Z,9.52
2022-11-05T21:42:24.935Z,11.05
2022-11-05T21:44:59.073Z,10.32
2022-11-05T21:47:29.420Z,8.95
2022-11-05T21:49:58.965Z,9.95
2022-11-05T21:52:45.106Z,9.93
2022-11-05T21:55:31.772Z,9.15
2022-11-05T21:58:21.551Z,10.30
2022-11-05T22:00:49.769Z,10.15
2022-11-05T22:03:18.256Z,13.02
2022-11-05T22:05:47.882Z,10.82
2022-11-05T22:08:16.156Z,11.63
2022-11-05T22:10:44.744Z,13.00
2022-11-05T22:13:13.337Z,10.93
2022-11-05T22:15:41.855Z,10.90
2022-11-05T22:18:10.410Z,11.18
2022-11-05T22:20:39.937Z,11.40
2022-11-05T22:23:11.334Z,12.35
2022-11-05T22:25:40.167Z,10.43
2022-11-05T22:28:08.355Z,10.77
2022-11-05T22:30:36.683Z,12.88
2022-11-05T22:33:05.317Z,9.75
2022-11-05T22:35:33.897Z,11.02
2022-11-05T22:38:02.097Z,10.73
2022-11-05T22:40:31.891Z,10.50
2022-11-05T22:43:00.092Z,9.38
2022-11-05T22:45:31.020Z,9.25
2022-11-05T22:48:02.618Z,10.70
2022-11-05T22:50:35.208Z,9.23
2022-11-05T22:53:03.776Z,11.38
2022-11-05T22:55:33.415Z,10.70
2022-11-05T22:58:01.906Z,10.20
2022-11-05T23:00:37.265Z,10.27
2022-11-05T23:03:06.020Z,9.68
2022-11-05T23:05:34.610Z,9.48
2022-11-05T23:08:35.053Z,11.07
2022-11-05T23:11:22.401Z,9.68
2022-11-05T23:13:50.949Z,11.00
2022-11-05T23:16:36.923Z,8.98
2022-11-05T23:19:23.177Z,10.02
2022-11-05T23:22:09.313Z,8.70
2022-11-05T23:24:37.662Z,8.18
2022-11-05T23:27:07.230Z,9.63
2022-11-05T23:29:35.798Z,8.43
2022-11-05T23:32:21.719Z,9.30
2022-11-05T23:34:49.970Z,11.25
2022-11-05T23:37:35.634Z,9.55
2022-11-05T23:40:04.955Z,10.38
2022-11-05T23:42:52.637Z,9.48
2022-11-05T23:45:39.374Z,9.48
2022-11-05T23:48:18.196Z,9.40
2022-11-05T23:50:50.367Z,9.02
2022-11-05T23:53:19.698Z,9.52
2022-11-05T23:55:48.697Z,8.27
2022-11-05T23:58:19.210Z,8.10
